Home, Kansas
Current Conditions -  °F | °C
As of 8:35 PM on Wednesday 26 Nov 2014 (Local Time) from KMYZ Reporting Station
Overcast Overcast  
Wind Chill: 18°   Ceiling: 1900
Heat Index: 28°   Visibility: 10mi
Dew Point: 21°   Wind: 13mph
Humidity: 74%   Direction: 350°N
Pressure: 30.39"   Gusts: NA
Location:  39.84°N, 96.52°W
Report Text: KMYZ 270235Z AUTO 35011KT 10SM OVC019 M02/M06 A3039 RMK AO2
Loading
Personal Weather Stations






























Interactive Weather Map New forecast layout! Learn more

10-Day Weather Forecast

Advertisements
Track Severe Weather on mobile